EGGD/BRS METAR and TAF weather

Enter ICAO airport designator
Station Type Date Time Source
EGGD METAR 2020/04/04 19:50 UTC NOAA

EGGD 041950Z AUTO 13008KT 9999 NCD 10/02 Q1017


Station Type Date Time Source
EGGD Decoded METAR 2020/04/04 19:50 UTC NOAA

Bristol / Lulsgate , United Kingdom (EGGD) 51-23N 002-43W
Apr 04, 2020 - 03:50 PM EDT / 2020.04.04 1950 UTC
Wind: from the SE (130 degrees) at 9 MPH (8 KT):0
Visibility: greater than 7 mile(s):0
Temperature: 50 F (10 C)
Dew Point: 35 F (2 C)
Relative Humidity: 57%
Pressure (altimeter): 30.03 in. Hg (1017 hPa)
ob: EGGD 041950Z AUTO 13008KT 9999 NCD 10/02 Q1017
cycle: 20

Station Type Date Time Source
EGGD TAF 2020/04/04 18:09 UTC NOAA

TAF EGGD 041704Z 0418/0518 13014KT 9999 FEW045
BECMG 0421/0424 14017G27KT

Example: see airport list